createdAt,value
2023-03-28T00:00:18.211Z,7.49
2023-03-28T00:02:44.833Z,7.48
2023-03-28T00:05:11.505Z,7.47
2023-03-28T00:07:38.293Z,7.38
2023-03-28T00:10:04.938Z,7.52
2023-03-28T00:12:31.532Z,7.42
2023-03-28T00:14:58.109Z,7.42
2023-03-28T00:17:24.728Z,7.45
2023-03-28T00:19:51.562Z,7.37
2023-03-28T00:22:18.095Z,7.30
2023-03-28T00:24:44.662Z,7.38
2023-03-28T00:27:11.250Z,7.26
2023-03-28T00:29:37.823Z,7.12
2023-03-28T00:32:04.428Z,7.33
2023-03-28T00:34:31.006Z,7.42
2023-03-28T00:36:57.629Z,6.90
2023-03-28T00:39:24.221Z,6.65
2023-03-28T00:41:50.799Z,6.78
2023-03-28T00:44:17.403Z,6.62
2023-03-28T00:46:44.082Z,7.07
2023-03-28T00:49:10.588Z,7.03
2023-03-28T00:51:37.159Z,7.42
2023-03-28T00:54:03.762Z,7.48
2023-03-28T00:56:30.377Z,7.41
2023-03-28T00:58:56.934Z,7.52
2023-03-28T01:01:23.619Z,7.25
2023-03-28T01:03:50.207Z,7.76
2023-03-28T01:06:16.775Z,7.56
2023-03-28T01:08:43.314Z,7.60
2023-03-28T01:11:09.903Z,7.46
2023-03-28T01:13:36.495Z,7.72
2023-03-28T01:16:03.345Z,7.76
2023-03-28T01:18:30.207Z,7.89
2023-03-28T01:20:56.779Z,7.94
2023-03-28T01:23:23.391Z,8.07
2023-03-28T01:25:49.965Z,8.08
2023-03-28T01:28:16.530Z,8.06
2023-03-28T01:30:43.087Z,7.89
2023-03-28T01:33:09.681Z,7.81
2023-03-28T01:35:36.381Z,7.92
2023-03-28T01:38:02.993Z,8.02
2023-03-28T01:40:29.549Z,7.94
2023-03-28T01:42:56.112Z,7.85
2023-03-28T01:45:22.844Z,7.70
2023-03-28T01:47:49.805Z,7.62
2023-03-28T01:50:16.441Z,7.46
2023-03-28T01:52:43.046Z,7.34
2023-03-28T01:55:09.645Z,7.10
2023-03-28T01:57:36.287Z,6.99
2023-03-28T02:00:02.888Z,7.13
2023-03-28T02:02:29.666Z,7.05
2023-03-28T02:04:57.170Z,7.16
2023-03-28T02:07:23.942Z,7.20
2023-03-28T02:09:50.573Z,7.21
2023-03-28T02:12:18.184Z,7.32
2023-03-28T02:14:44.769Z,7.12
2023-03-28T02:17:11.330Z,6.81
2023-03-28T02:19:37.925Z,6.66
2023-03-28T02:22:04.475Z,6.65
2023-03-28T02:24:31.025Z,6.80
2023-03-28T02:26:57.616Z,6.73
2023-03-28T02:29:24.174Z,6.78
2023-03-28T02:31:50.798Z,6.95
2023-03-28T02:34:17.382Z,6.87
2023-03-28T02:36:43.968Z,6.80
2023-03-28T02:39:10.555Z,6.86
2023-03-28T02:41:37.133Z,6.49
2023-03-28T02:44:03.677Z,6.53
2023-03-28T02:46:31.316Z,6.62
2023-03-28T02:48:57.953Z,6.93
2023-03-28T02:51:24.540Z,7.26
2023-03-28T02:53:51.109Z,7.42
2023-03-28T02:56:17.818Z,7.54
2023-03-28T02:58:44.466Z,7.67
2023-03-28T03:01:11.077Z,7.74
2023-03-28T03:03:37.807Z,7.75
2023-03-28T03:06:04.535Z,7.45
2023-03-28T03:08:31.081Z,7.49
2023-03-28T03:10:57.714Z,7.68
2023-03-28T03:13:24.272Z,7.59
2023-03-28T03:15:50.942Z,7.71
2023-03-28T03:18:17.538Z,7.66
2023-03-28T03:20:44.130Z,7.61
2023-03-28T03:23:10.720Z,7.54
2023-03-28T03:25:37.336Z,7.48
2023-03-28T03:28:03.880Z,7.34
2023-03-28T03:30:30.428Z,7.21
2023-03-28T03:32:57.048Z,7.20
2023-03-28T03:35:23.728Z,7.21
2023-03-28T03:37:50.339Z,7.03
2023-03-28T03:40:16.910Z,7.11
2023-03-28T03:42:43.467Z,7.14
2023-03-28T03:45:10.075Z,7.11
2023-03-28T03:47:36.699Z,6.95
2023-03-28T03:50:03.281Z,6.88
2023-03-28T03:52:29.865Z,7.01
2023-03-28T03:54:56.431Z,7.21
2023-03-28T03:57:23.075Z,7.15
2023-03-28T03:59:49.733Z,7.06
2023-03-28T04:02:16.415Z,7.23
2023-03-28T04:04:43.067Z,7.03
2023-03-28T04:07:09.753Z,7.10
2023-03-28T04:09:36.333Z,7.16
2023-03-28T04:12:02.913Z,7.07
2023-03-28T04:14:29.450Z,7.07
2023-03-28T04:16:56.091Z,7.01
2023-03-28T04:19:22.754Z,7.08
2023-03-28T04:21:49.462Z,7.05
2023-03-28T04:24:16.074Z,6.98
2023-03-28T04:26:45.017Z,6.90
2023-03-28T04:29:11.613Z,6.70
2023-03-28T04:31:38.225Z,6.44
2023-03-28T04:34:05.071Z,6.69
2023-03-28T04:36:31.732Z,6.76
2023-03-28T04:38:58.320Z,6.74
2023-03-28T04:41:24.899Z,6.75
2023-03-28T04:43:51.541Z,6.84
2023-03-28T04:46:18.235Z,6.70
2023-03-28T04:48:44.929Z,6.70
2023-03-28T04:51:11.485Z,6.86
2023-03-28T04:53:38.088Z,6.71
2023-03-28T04:56:04.689Z,6.66
2023-03-28T04:58:31.300Z,6.71
2023-03-28T05:00:58.053Z,6.76
2023-03-28T05:03:24.966Z,6.71
2023-03-28T05:05:51.700Z,6.70
2023-03-28T05:08:18.687Z,6.61
2023-03-28T05:10:45.288Z,6.39
2023-03-28T05:13:11.871Z,6.37
2023-03-28T05:15:38.451Z,6.50
2023-03-28T05:18:05.080Z,6.59
2023-03-28T05:20:31.648Z,6.65
2023-03-28T05:22:58.272Z,6.48
2023-03-28T05:25:25.240Z,6.52
2023-03-28T05:27:51.839Z,6.66
2023-03-28T05:30:18.530Z,6.76
2023-03-28T05:32:45.153Z,6.91
2023-03-28T05:35:11.745Z,6.96
2023-03-28T05:37:41.423Z,7.10
2023-03-28T05:40:11.473Z,7.09
2023-03-28T05:42:38.044Z,6.96
2023-03-28T05:45:04.643Z,7.00
2023-03-28T05:47:31.293Z,7.24
2023-03-28T05:49:57.824Z,7.17
2023-03-28T05:52:24.387Z,7.06
2023-03-28T05:54:52.356Z,7.22
2023-03-28T05:57:19.269Z,7.36
2023-03-28T05:59:45.883Z,7.42
2023-03-28T06:02:12.442Z,7.54
2023-03-28T06:04:39.126Z,7.72
2023-03-28T06:07:05.755Z,7.86
2023-03-28T06:09:32.349Z,7.97
2023-03-28T06:11:58.897Z,8.19
2023-03-28T06:14:25.445Z,8.35
2023-03-28T06:16:52.143Z,8.60
2023-03-28T06:19:19.007Z,8.74
2023-03-28T06:21:45.705Z,8.75
2023-03-28T06:24:12.335Z,8.92
2023-03-28T06:26:38.867Z,8.72
2023-03-28T06:29:05.445Z,8.84
2023-03-28T06:31:32.159Z,9.10
2023-03-28T06:33:58.767Z,8.58
2023-03-28T06:36:25.317Z,7.97
2023-03-28T06:38:51.958Z,8.21
2023-03-28T06:41:18.562Z,8.01
2023-03-28T06:43:45.192Z,8.32
2023-03-28T06:46:11.810Z,7.89
2023-03-28T06:48:38.405Z,8.06
2023-03-28T06:51:05.020Z,7.74
2023-03-28T06:53:31.607Z,7.83
2023-03-28T06:55:58.165Z,8.22
2023-03-28T06:58:24.740Z,8.23
2023-03-28T07:00:51.352Z,8.38
2023-03-28T07:03:17.997Z,8.18
2023-03-28T07:05:44.670Z,8.05
2023-03-28T07:08:11.233Z,8.08
2023-03-28T07:10:37.857Z,8.21
2023-03-28T07:13:04.458Z,8.43
2023-03-28T07:15:31.036Z,8.10
2023-03-28T07:17:57.647Z,8.68
2023-03-28T07:20:24.325Z,8.86
2023-03-28T07:22:50.963Z,8.83
2023-03-28T07:25:17.564Z,9.48
2023-03-28T07:27:44.158Z,10.04
2023-03-28T07:30:10.732Z,9.68
2023-03-28T07:32:48.100Z,9.42
2023-03-28T07:35:21.059Z,9.53
2023-03-28T07:37:47.631Z,9.65
2023-03-28T07:40:14.386Z,9.32
2023-03-28T07:42:40.992Z,9.72
2023-03-28T07:45:07.545Z,9.83
2023-03-28T07:47:34.191Z,9.85
2023-03-28T07:50:00.756Z,10.01
2023-03-28T07:52:27.362Z,9.93
2023-03-28T07:54:54.091Z,9.35
2023-03-28T07:57:20.764Z,9.34
2023-03-28T07:59:47.362Z,9.45
2023-03-28T08:02:13.964Z,9.88
2023-03-28T08:04:40.535Z,9.84
2023-03-28T08:07:07.097Z,9.42
2023-03-28T08:09:33.637Z,9.42
2023-03-28T08:12:00.244Z,9.75
2023-03-28T08:14:26.813Z,9.62
2023-03-28T08:16:53.373Z,9.80
2023-03-28T08:19:19.938Z,9.84
2023-03-28T08:21:46.493Z,9.47
2023-03-28T08:24:19.572Z,10.03
2023-03-28T08:26:52.178Z,10.61
2023-03-28T08:29:18.849Z,10.84
2023-03-28T08:31:45.513Z,10.68
2023-03-28T08:34:12.256Z,10.47
2023-03-28T08:36:38.811Z,10.80
2023-03-28T08:39:05.465Z,11.27
2023-03-28T08:41:32.055Z,11.39
2023-03-28T08:43:58.621Z,11.42
2023-03-28T08:46:25.228Z,11.70
2023-03-28T08:48:51.947Z,11.61
2023-03-28T08:51:18.517Z,11.63
2023-03-28T08:53:45.357Z,10.50
2023-03-28T08:56:11.914Z,10.61
2023-03-28T08:58:38.764Z,10.89
2023-03-28T09:01:06.888Z,10.92
2023-03-28T09:03:33.552Z,10.78
2023-03-28T09:06:00.382Z,11.25
2023-03-28T09:08:27.157Z,11.01
2023-03-28T09:10:53.772Z,11.03
2023-03-28T09:13:20.404Z,11.15
2023-03-28T09:15:46.961Z,11.29
2023-03-28T09:18:13.840Z,11.77
2023-03-28T09:20:42.628Z,11.98
2023-03-28T09:23:09.805Z,12.40
2023-03-28T09:25:36.383Z,11.87
2023-03-28T09:28:03.093Z,11.54
2023-03-28T09:30:29.721Z,11.41
2023-03-28T09:32:56.578Z,11.39
2023-03-28T09:35:23.225Z,11.40
2023-03-28T09:37:49.874Z,11.70
2023-03-28T09:40:16.442Z,11.80
2023-03-28T09:42:43.047Z,11.83
2023-03-28T09:45:09.721Z,11.95
2023-03-28T09:47:36.731Z,12.25
2023-03-28T09:50:12.405Z,12.31
2023-03-28T09:52:39.958Z,12.78
2023-03-28T09:55:07.241Z,13.32
2023-03-28T09:57:33.877Z,13.79
2023-03-28T10:00:00.479Z,13.30
2023-03-28T10:02:27.116Z,12.86
2023-03-28T10:04:53.780Z,12.51
2023-03-28T10:07:20.340Z,12.39
2023-03-28T10:09:46.891Z,13.18
2023-03-28T10:12:13.525Z,13.23
2023-03-28T10:14:40.095Z,13.47
2023-03-28T10:17:06.670Z,12.79
2023-03-28T10:19:33.309Z,12.67
2023-03-28T10:21:59.880Z,13.42
2023-03-28T10:24:26.418Z,13.88
2023-03-28T10:26:53.004Z,14.10
2023-03-28T10:29:19.696Z,14.10
2023-03-28T10:31:46.391Z,14.13
2023-03-28T10:34:13.130Z,14.33
2023-03-28T10:36:39.700Z,13.49
2023-03-28T10:39:06.366Z,13.13
2023-03-28T10:41:32.941Z,13.57
2023-03-28T10:43:59.523Z,14.06
2023-03-28T10:46:26.100Z,14.83
2023-03-28T10:48:52.960Z,14.69
2023-03-28T10:51:19.587Z,13.97
2023-03-28T10:53:46.155Z,14.07
2023-03-28T10:56:12.712Z,14.47
2023-03-28T10:58:39.287Z,14.41
2023-03-28T11:01:05.873Z,14.76
2023-03-28T11:03:32.594Z,15.35
2023-03-28T11:06:08.737Z,15.80
2023-03-28T11:08:36.347Z,15.42
2023-03-28T11:11:03.066Z,14.90
2023-03-28T11:13:29.842Z,14.23
2023-03-28T11:15:56.459Z,14.16
2023-03-28T11:18:23.023Z,13.62
2023-03-28T11:20:49.678Z,13.71
2023-03-28T11:23:16.282Z,12.88
2023-03-28T11:25:42.845Z,12.98
2023-03-28T11:28:09.409Z,12.47
2023-03-28T11:30:35.974Z,12.32
2023-03-28T11:33:02.800Z,12.91
2023-03-28T11:35:29.419Z,12.94
2023-03-28T11:37:56.210Z,13.47
2023-03-28T11:40:22.830Z,13.71
2023-03-28T11:42:49.395Z,14.44
2023-03-28T11:45:15.987Z,13.78
2023-03-28T11:47:42.665Z,13.77
2023-03-28T11:50:09.267Z,14.29
2023-03-28T11:52:36.762Z,14.83
2023-03-28T11:55:03.567Z,14.58
2023-03-28T11:57:30.164Z,14.66
2023-03-28T11:59:57.774Z,14.80
2023-03-28T12:02:24.418Z,14.77
2023-03-28T12:04:51.129Z,14.99
2023-03-28T12:07:17.700Z,15.36
2023-03-28T12:09:44.263Z,15.11
2023-03-28T12:12:10.843Z,14.36
2023-03-28T12:14:37.418Z,14.06
2023-03-28T12:17:04.102Z,14.35
2023-03-28T12:19:30.766Z,14.00
2023-03-28T12:21:57.376Z,14.53
2023-03-28T12:24:24.008Z,15.02
2023-03-28T12:26:50.574Z,15.76
2023-03-28T12:29:17.162Z,15.92
2023-03-28T12:31:43.726Z,15.92
2023-03-28T12:34:10.364Z,15.40
2023-03-28T12:36:36.936Z,13.51
2023-03-28T12:39:03.478Z,12.38
2023-03-28T12:41:30.097Z,13.08
2023-03-28T12:43:57.546Z,13.21
2023-03-28T12:46:24.194Z,14.25
2023-03-28T12:48:50.798Z,14.22
2023-03-28T12:51:17.444Z,14.24
2023-03-28T12:53:44.011Z,13.60
2023-03-28T12:56:10.781Z,13.49
2023-03-28T12:58:37.324Z,14.13
2023-03-28T13:01:03.994Z,14.36
2023-03-28T13:03:30.584Z,13.65
2023-03-28T13:05:57.160Z,14.12
2023-03-28T13:08:24.434Z,14.64
2023-03-28T13:10:51.109Z,15.00
2023-03-28T13:13:17.698Z,14.79
2023-03-28T13:15:44.337Z,15.24
2023-03-28T13:18:10.952Z,15.25
2023-03-28T13:20:37.633Z,14.91
2023-03-28T13:23:04.189Z,14.76
2023-03-28T13:25:30.765Z,15.26
2023-03-28T13:27:57.325Z,15.05
2023-03-28T13:30:23.907Z,14.87
2023-03-28T13:32:50.539Z,14.33
2023-03-28T13:35:17.143Z,14.83
2023-03-28T13:37:43.720Z,15.03
2023-03-28T13:40:10.318Z,15.27
2023-03-28T13:42:36.914Z,14.48
2023-03-28T13:45:03.468Z,15.02
2023-03-28T13:47:30.138Z,15.17
2023-03-28T13:49:56.715Z,14.92
2023-03-28T13:52:23.354Z,14.94
2023-03-28T13:54:49.949Z,15.30
2023-03-28T13:57:16.599Z,15.35
2023-03-28T13:59:43.232Z,15.49
2023-03-28T14:02:09.847Z,15.63
2023-03-28T14:04:36.510Z,16.32
2023-03-28T14:07:03.121Z,14.91
2023-03-28T14:09:30.720Z,14.07
2023-03-28T14:11:57.258Z,13.26
2023-03-28T14:14:23.868Z,13.13
2023-03-28T14:16:50.506Z,12.89
2023-03-28T14:19:19.025Z,12.83
2023-03-28T14:21:47.083Z,12.47
2023-03-28T14:24:13.696Z,13.56
2023-03-28T14:26:40.282Z,13.91
2023-03-28T14:29:07.018Z,13.24
2023-03-28T14:31:33.617Z,12.48
2023-03-28T14:34:00.339Z,12.49
2023-03-28T14:36:26.906Z,12.99
2023-03-28T14:38:53.470Z,12.79
2023-03-28T14:41:20.284Z,12.90
2023-03-28T14:43:46.828Z,13.16
2023-03-28T14:46:13.494Z,12.95
2023-03-28T14:48:40.143Z,13.39
2023-03-28T14:51:06.714Z,14.24
2023-03-28T14:53:33.270Z,14.64
2023-03-28T14:56:02.214Z,15.03
2023-03-28T14:58:30.025Z,14.00
2023-03-28T15:00:56.693Z,13.79
2023-03-28T15:03:23.386Z,13.87
2023-03-28T15:05:50.022Z,14.17
2023-03-28T15:08:16.634Z,14.23
2023-03-28T15:10:43.223Z,14.35
2023-03-28T15:13:09.846Z,14.01
2023-03-28T15:15:36.453Z,14.35
2023-03-28T15:18:03.231Z,14.56
2023-03-28T15:20:30.013Z,14.02
2023-03-28T15:22:56.569Z,13.42
2023-03-28T15:25:23.244Z,14.03
2023-03-28T15:27:49.791Z,14.75
2023-03-28T15:30:16.523Z,15.10
2023-03-28T15:32:43.090Z,14.87
2023-03-28T15:35:12.136Z,14.16
2023-03-28T15:37:39.159Z,13.71
2023-03-28T15:40:05.765Z,13.31
2023-03-28T15:42:32.357Z,13.24
2023-03-28T15:44:58.944Z,13.59
2023-03-28T15:47:25.577Z,13.76
2023-03-28T15:49:52.188Z,13.41
2023-03-28T15:52:18.745Z,13.49
2023-03-28T15:54:45.374Z,13.56
2023-03-28T15:57:11.983Z,13.71
2023-03-28T15:59:38.633Z,13.26
2023-03-28T16:02:05.237Z,14.06
2023-03-28T16:04:31.914Z,15.13
2023-03-28T16:06:58.493Z,14.14
2023-03-28T16:09:25.101Z,13.80
2023-03-28T16:11:51.706Z,12.84
2023-03-28T16:14:18.281Z,12.61
2023-03-28T16:16:44.929Z,12.36
2023-03-28T16:19:11.542Z,12.92
2023-03-28T16:21:38.159Z,13.23
2023-03-28T16:24:04.710Z,12.24
2023-03-28T16:26:31.334Z,11.59
2023-03-28T16:28:57.885Z,11.38
2023-03-28T16:31:24.585Z,11.75
2023-03-28T16:33:51.271Z,11.96
2023-03-28T16:36:17.917Z,11.36
2023-03-28T16:38:44.542Z,11.06
2023-03-28T16:41:11.188Z,11.69
2023-03-28T16:43:37.777Z,11.91
2023-03-28T16:46:04.527Z,11.67
2023-03-28T16:48:31.288Z,11.63
2023-03-28T16:50:57.854Z,11.44
2023-03-28T16:53:24.495Z,11.62
2023-03-28T16:55:51.063Z,11.69
2023-03-28T16:58:17.691Z,11.33
2023-03-28T17:00:44.448Z,11.10
2023-03-28T17:03:11.190Z,11.18
2023-03-28T17:05:37.895Z,11.40
2023-03-28T17:08:04.486Z,11.47
2023-03-28T17:10:31.063Z,11.57
2023-03-28T17:12:57.612Z,11.25
2023-03-28T17:15:24.190Z,11.33
2023-03-28T17:17:50.844Z,11.50
2023-03-28T17:20:17.466Z,11.71
2023-03-28T17:22:44.043Z,11.21
2023-03-28T17:25:10.649Z,11.14
2023-03-28T17:27:37.212Z,11.15
2023-03-28T17:30:03.799Z,11.08
2023-03-28T17:32:30.752Z,11.05
2023-03-28T17:34:57.391Z,11.15
2023-03-28T17:37:23.992Z,11.14
2023-03-28T17:39:50.599Z,10.88
2023-03-28T17:42:17.154Z,10.91
2023-03-28T17:44:43.786Z,11.00
2023-03-28T17:47:10.357Z,11.10
2023-03-28T17:49:36.972Z,10.98
2023-03-28T17:52:03.557Z,11.05
2023-03-28T17:54:30.205Z,10.94
2023-03-28T17:56:56.820Z,11.07
2023-03-28T17:59:23.404Z,10.97
2023-03-28T18:01:50.036Z,11.10
2023-03-28T18:04:16.636Z,10.98
2023-03-28T18:06:43.205Z,10.76
2023-03-28T18:09:09.766Z,10.68
2023-03-28T18:11:36.463Z,10.87
2023-03-28T18:14:03.027Z,10.78
2023-03-28T18:16:29.622Z,10.72
2023-03-28T18:18:56.244Z,10.55
2023-03-28T18:21:22.794Z,10.19
2023-03-28T18:23:49.415Z,10.37
2023-03-28T18:26:15.972Z,10.06
2023-03-28T18:28:42.547Z,10.03
2023-03-28T18:31:09.166Z,9.93
2023-03-28T18:33:35.759Z,10.11
2023-03-28T18:36:02.558Z,10.05
2023-03-28T18:38:29.298Z,9.87
2023-03-28T18:40:55.910Z,9.44
2023-03-28T18:43:23.094Z,9.57
2023-03-28T18:45:49.772Z,9.46
2023-03-28T18:48:16.429Z,9.39
2023-03-28T18:50:43.007Z,9.24
2023-03-28T18:53:11.882Z,9.20
2023-03-28T18:55:38.465Z,9.03
2023-03-28T18:58:05.042Z,8.96
2023-03-28T19:00:31.605Z,8.83
2023-03-28T19:02:58.362Z,8.90
2023-03-28T19:05:25.049Z,8.98
2023-03-28T19:07:51.697Z,8.96
2023-03-28T19:10:18.287Z,8.97
2023-03-28T19:12:44.891Z,9.06
2023-03-28T19:15:11.471Z,8.91
2023-03-28T19:17:38.145Z,8.88
2023-03-28T19:20:04.786Z,8.77
2023-03-28T19:22:31.362Z,8.57
2023-03-28T19:24:57.959Z,8.61
2023-03-28T19:27:24.549Z,8.64
2023-03-28T19:29:51.104Z,8.41
2023-03-28T19:32:17.701Z,8.46
2023-03-28T19:34:44.255Z,8.19
2023-03-28T19:37:10.850Z,7.88
2023-03-28T19:39:41.937Z,7.72
2023-03-28T19:42:08.496Z,7.54
2023-03-28T19:44:35.105Z,7.51
2023-03-28T19:47:01.742Z,7.44
2023-03-28T19:52:12.568Z,7.55
2023-03-28T19:54:39.136Z,7.52
2023-03-28T19:57:08.050Z,7.64
2023-03-28T19:59:35.124Z,7.65
2023-03-28T20:02:01.930Z,7.78
2023-03-28T20:04:28.637Z,7.87
2023-03-28T20:06:55.260Z,8.04
2023-03-28T20:09:21.831Z,8.01
2023-03-28T20:11:48.390Z,7.90
2023-03-28T20:14:14.952Z,7.94
2023-03-28T20:16:41.481Z,8.10
2023-03-28T20:19:08.064Z,8.18
2023-03-28T20:21:34.649Z,8.11
2023-03-28T20:24:01.214Z,8.19
2023-03-28T20:26:27.846Z,8.16
2023-03-28T20:28:54.478Z,8.04
2023-03-28T20:31:21.080Z,8.09
2023-03-28T20:33:47.918Z,7.94
2023-03-28T20:36:14.493Z,7.94
2023-03-28T20:38:41.073Z,7.87
2023-03-28T20:41:07.629Z,7.83
2023-03-28T20:43:34.208Z,8.02
2023-03-28T20:46:00.778Z,7.62
2023-03-28T20:48:27.324Z,7.38
2023-03-28T20:50:53.914Z,7.66
2023-03-28T20:53:20.520Z,7.74
2023-03-28T20:55:47.094Z,7.58
2023-03-28T20:58:13.693Z,7.65
2023-03-28T21:00:40.345Z,7.70
2023-03-28T21:03:06.941Z,7.76
2023-03-28T21:05:33.549Z,7.55
2023-03-28T21:08:00.201Z,7.41
2023-03-28T21:10:28.657Z,7.09
2023-03-28T21:12:55.252Z,6.73
2023-03-28T21:15:21.845Z,6.44
2023-03-28T21:17:48.511Z,6.60
2023-03-28T21:20:15.135Z,6.78
2023-03-28T21:22:41.721Z,6.74
2023-03-28T21:25:08.317Z,6.81
2023-03-28T21:27:34.926Z,6.96
2023-03-28T21:30:01.559Z,7.09
2023-03-28T21:32:28.306Z,7.08
2023-03-28T21:34:54.909Z,7.10
2023-03-28T21:37:21.491Z,6.98
2023-03-28T21:39:48.099Z,6.77
2023-03-28T21:42:14.783Z,6.44
2023-03-28T21:44:41.409Z,6.51
2023-03-28T21:47:07.996Z,6.63
2023-03-28T21:49:34.581Z,6.66
2023-03-28T21:52:01.165Z,6.88
2023-03-28T21:54:27.742Z,7.03
2023-03-28T21:56:54.312Z,7.12
2023-03-28T21:59:21.061Z,7.06
2023-03-28T22:01:47.667Z,7.06
2023-03-28T22:04:14.569Z,7.02
2023-03-28T22:06:41.129Z,7.00
2023-03-28T22:09:10.132Z,6.74
2023-03-28T22:11:36.687Z,6.71
2023-03-28T22:14:03.300Z,6.88
2023-03-28T22:16:29.846Z,6.86
2023-03-28T22:18:56.399Z,6.92
2023-03-28T22:21:22.976Z,6.77
2023-03-28T22:23:49.556Z,6.82
2023-03-28T22:26:16.174Z,6.35
2023-03-28T22:28:42.819Z,6.33
2023-03-28T22:31:09.451Z,6.64
2023-03-28T22:33:36.115Z,6.70
2023-03-28T22:36:02.649Z,6.75
2023-03-28T22:38:29.317Z,6.04
2023-03-28T22:40:55.884Z,6.28
2023-03-28T22:43:22.453Z,6.46
2023-03-28T22:45:49.023Z,6.68
2023-03-28T22:48:15.646Z,6.64
2023-03-28T22:50:42.246Z,6.63
2023-03-28T22:53:08.823Z,6.62
2023-03-28T22:55:35.442Z,6.49
2023-03-28T22:58:01.989Z,6.73
2023-03-28T23:00:28.668Z,6.50
2023-03-28T23:02:55.306Z,6.54
2023-03-28T23:05:22.177Z,6.63
2023-03-28T23:07:48.920Z,6.63
2023-03-28T23:10:15.693Z,6.75
2023-03-28T23:12:42.361Z,6.48
2023-03-28T23:15:09.127Z,6.29
2023-03-28T23:17:35.885Z,6.31
2023-03-28T23:20:02.515Z,6.39
2023-03-28T23:22:29.060Z,6.56
2023-03-28T23:24:56.165Z,6.57
2023-03-28T23:27:22.741Z,6.75
2023-03-28T23:29:49.331Z,6.96
2023-03-28T23:32:16.963Z,7.15
2023-03-28T23:34:43.581Z,7.11
2023-03-28T23:37:10.257Z,7.14
2023-03-28T23:39:36.821Z,6.80
2023-03-28T23:42:03.426Z,6.85
2023-03-28T23:44:29.994Z,6.90
2023-03-28T23:46:56.545Z,6.96
2023-03-28T23:49:23.156Z,6.95
2023-03-28T23:51:49.711Z,6.92
2023-03-28T23:54:16.286Z,6.93
2023-03-28T23:56:42.932Z,6.94
2023-03-28T23:59:09.672Z,6.97
